createdAt,value
2022-09-06T00:02:51.010Z,2.94
2022-09-06T00:07:58.629Z,2.95
2022-09-06T00:13:05.540Z,2.94
2022-09-06T00:18:12.735Z,2.94
2022-09-06T00:23:20.720Z,2.95
2022-09-06T00:28:28.467Z,2.94
2022-09-06T00:33:35.953Z,2.94
2022-09-06T00:38:43.211Z,2.94
2022-09-06T00:43:51.167Z,2.94
2022-09-06T00:48:59.035Z,2.94
2022-09-06T00:54:05.923Z,2.94
2022-09-06T00:59:13.694Z,2.94
2022-09-06T01:04:20.728Z,2.94
2022-09-06T01:09:27.935Z,2.94
2022-09-06T01:14:35.479Z,2.94
2022-09-06T01:19:43.529Z,2.94
2022-09-06T01:24:50.981Z,2.94
2022-09-06T01:29:58.967Z,2.94
2022-09-06T01:35:06.543Z,2.94
2022-09-06T01:40:13.741Z,2.94
2022-09-06T01:45:20.950Z,2.95
2022-09-06T01:50:28.808Z,2.94
2022-09-06T01:55:36.681Z,2.93
2022-09-06T02:00:44.416Z,2.94
2022-09-06T02:05:51.998Z,2.94
2022-09-06T02:10:59.468Z,2.94
2022-09-06T02:16:06.799Z,2.94
2022-09-06T02:21:14.541Z,2.95
2022-09-06T02:26:22.410Z,2.94
2022-09-06T02:31:31.967Z,2.94
2022-09-06T02:36:40.045Z,2.94
2022-09-06T02:41:48.043Z,2.94
2022-09-06T02:46:55.615Z,2.93
2022-09-06T02:52:03.108Z,2.93
2022-09-06T02:57:10.018Z,2.94
2022-09-06T03:02:17.215Z,2.95
2022-09-06T03:07:24.411Z,2.92
2022-09-06T03:12:33.815Z,2.94
2022-09-06T03:17:40.787Z,2.94
2022-09-06T03:22:48.062Z,2.94
2022-09-06T03:27:54.569Z,2.93
2022-09-06T03:33:02.771Z,2.93
2022-09-06T03:38:09.071Z,2.94
2022-09-06T03:43:17.650Z,2.94
2022-09-06T03:48:26.360Z,2.94
2022-09-06T03:53:35.125Z,2.94
2022-09-06T03:58:48.640Z,2.94
2022-09-06T04:03:55.939Z,2.94
2022-09-06T04:09:04.254Z,2.94
2022-09-06T04:14:12.102Z,2.94
2022-09-06T04:19:20.918Z,2.94
2022-09-06T04:24:28.432Z,2.94
2022-09-06T04:29:36.252Z,2.93
2022-09-06T04:34:43.936Z,2.93
2022-09-06T04:39:52.446Z,2.94
2022-09-06T04:45:01.449Z,2.94
2022-09-06T04:50:08.300Z,2.94
2022-09-06T04:55:18.172Z,2.93
2022-09-06T05:00:25.818Z,2.93
2022-09-06T05:05:33.418Z,2.93
2022-09-06T05:10:41.834Z,2.94
2022-09-06T05:15:51.171Z,2.94
2022-09-06T05:20:58.463Z,2.95
2022-09-06T05:26:07.483Z,2.94
2022-09-06T05:31:15.899Z,2.94
2022-09-06T05:36:24.362Z,2.94
2022-09-06T05:41:32.415Z,2.95
2022-09-06T05:46:40.309Z,2.95
2022-09-06T05:51:47.120Z,2.96
2022-09-06T05:56:55.506Z,2.96
2022-09-06T06:02:04.289Z,2.96
2022-09-06T06:07:11.611Z,2.96
2022-09-06T06:12:18.159Z,2.98
2022-09-06T06:17:25.801Z,2.97
2022-09-06T06:22:33.220Z,2.97
2022-09-06T06:27:41.936Z,2.98
2022-09-06T06:32:49.752Z,2.97
2022-09-06T06:37:59.254Z,2.98
2022-09-06T06:43:05.862Z,2.98
2022-09-06T06:48:12.416Z,2.97
2022-09-06T06:53:21.881Z,2.98
2022-09-06T06:58:31.228Z,2.97
2022-09-06T07:03:39.191Z,2.98
2022-09-06T07:08:46.447Z,2.97
2022-09-06T07:13:54.324Z,2.98
2022-09-06T07:19:02.527Z,2.97
2022-09-06T07:24:10.084Z,2.98
2022-09-06T07:29:18.289Z,2.97
2022-09-06T07:34:24.894Z,2.98
2022-09-06T07:39:32.698Z,2.97
2022-09-06T07:44:41.098Z,2.98
2022-09-06T07:49:48.633Z,2.96
2022-09-06T07:54:56.355Z,2.98
2022-09-06T08:00:10.472Z,2.98
2022-09-06T08:05:17.789Z,2.98
2022-09-06T08:10:25.681Z,2.97
2022-09-06T08:15:33.990Z,2.98
2022-09-06T08:20:40.538Z,2.98
2022-09-06T08:25:49.054Z,2.97
2022-09-06T08:31:01.979Z,2.97
2022-09-06T08:36:09.834Z,2.97
2022-09-06T08:41:17.746Z,2.97
2022-09-06T08:46:25.519Z,2.97
2022-09-06T08:51:33.323Z,2.98
2022-09-06T08:56:41.727Z,2.98
2022-09-06T09:01:49.452Z,2.98
2022-09-06T09:06:57.374Z,2.98
2022-09-06T09:12:05.517Z,2.98
2022-09-06T09:17:14.247Z,2.98
2022-09-06T09:22:22.264Z,2.98
2022-09-06T09:27:29.648Z,2.97
2022-09-06T09:32:37.768Z,2.97
2022-09-06T09:37:44.544Z,2.99
2022-09-06T09:42:52.410Z,2.98
2022-09-06T09:48:00.422Z,2.98
2022-09-06T09:53:08.020Z,2.98
2022-09-06T09:58:15.266Z,2.97
2022-09-06T10:03:24.069Z,2.98
2022-09-06T10:08:31.765Z,2.98
2022-09-06T10:13:41.174Z,2.98
2022-09-06T10:18:49.459Z,2.98
2022-09-06T10:23:57.765Z,2.99
2022-09-06T10:29:05.249Z,2.98
2022-09-06T10:34:12.461Z,3.0
2022-09-06T10:39:20.016Z,2.99
2022-09-06T10:44:27.101Z,2.99
2022-09-06T10:49:34.396Z,2.98
2022-09-06T10:54:41.546Z,2.99
2022-09-06T10:59:50.052Z,2.99
2022-09-06T11:04:58.653Z,2.99
2022-09-06T11:10:06.399Z,2.99
2022-09-06T11:15:16.781Z,2.98
2022-09-06T11:20:24.572Z,2.98
2022-09-06T11:25:32.452Z,2.99
2022-09-06T11:30:40.330Z,2.99
2022-09-06T11:35:47.919Z,2.99
2022-09-06T11:40:57.282Z,2.99
2022-09-06T11:46:05.810Z,2.99
2022-09-06T11:51:13.917Z,2.99
2022-09-06T11:56:22.494Z,2.99
2022-09-06T12:01:29.622Z,3.0
2022-09-06T12:06:37.594Z,2.98
2022-09-06T12:11:45.023Z,2.98
2022-09-06T12:16:53.414Z,2.99
2022-09-06T12:22:01.368Z,2.98
2022-09-06T12:27:08.413Z,3.0
2022-09-06T12:32:16.210Z,2.99
2022-09-06T12:37:23.509Z,2.99
2022-09-06T12:42:31.391Z,2.99
2022-09-06T12:47:39.101Z,2.98
2022-09-06T12:52:46.975Z,2.98
2022-09-06T12:57:54.162Z,2.98
2022-09-06T13:03:01.380Z,2.98
2022-09-06T13:08:08.551Z,3.0
2022-09-06T13:13:17.020Z,2.99
2022-09-06T13:18:25.894Z,3.0
2022-09-06T13:23:33.667Z,3.0
2022-09-06T13:28:42.425Z,2.99
2022-09-06T13:33:49.702Z,3.0
2022-09-06T13:38:56.260Z,2.99
2022-09-06T13:44:02.852Z,2.99
2022-09-06T13:49:09.997Z,3.0
2022-09-06T13:54:17.290Z,2.99
2022-09-06T13:59:24.638Z,3.0
2022-09-06T14:04:31.593Z,3.0
2022-09-06T14:09:38.792Z,3.0
2022-09-06T14:14:46.047Z,3.0
2022-09-06T14:19:53.196Z,3.0
2022-09-06T14:25:00.379Z,2.99
2022-09-06T14:30:07.653Z,2.99
2022-09-06T14:35:14.806Z,2.99
2022-09-06T14:40:21.674Z,2.99
2022-09-06T14:45:29.801Z,2.99
2022-09-06T14:50:37.060Z,2.98
2022-09-06T14:55:45.321Z,2.99
2022-09-06T15:00:54.090Z,2.98
2022-09-06T15:06:01.911Z,2.99
2022-09-06T15:11:09.749Z,2.98
2022-09-06T15:16:17.618Z,2.99
2022-09-06T15:21:25.385Z,2.98
2022-09-06T15:26:34.485Z,2.99
2022-09-06T15:31:42.362Z,2.99
2022-09-06T15:36:49.278Z,2.98
2022-09-06T15:41:56.258Z,3.0
2022-09-06T15:47:04.120Z,2.99
2022-09-06T15:52:12.352Z,2.98
2022-09-06T15:57:20.062Z,2.98
2022-09-06T16:02:27.801Z,2.99
2022-09-06T16:07:34.667Z,2.99
2022-09-06T16:12:42.260Z,3.0
2022-09-06T16:17:54.820Z,2.98
2022-09-06T16:23:01.383Z,2.99
2022-09-06T16:28:10.370Z,2.99
2022-09-06T16:33:17.064Z,2.98
2022-09-06T16:38:24.714Z,2.98
2022-09-06T16:43:32.750Z,2.98
2022-09-06T16:48:40.153Z,2.98
2022-09-06T16:53:46.838Z,2.97
2022-09-06T16:58:54.898Z,2.98
2022-09-06T17:04:02.062Z,2.98
2022-09-06T17:09:11.188Z,2.97
2022-09-06T17:14:18.455Z,2.98
2022-09-06T17:19:26.196Z,2.97
2022-09-06T17:24:33.538Z,2.98
2022-09-06T17:29:41.302Z,2.97
2022-09-06T17:34:47.536Z,2.98
2022-09-06T17:39:54.473Z,2.97
2022-09-06T17:45:02.114Z,2.97
2022-09-06T17:50:10.037Z,2.96
2022-09-06T17:55:17.551Z,2.97
2022-09-06T18:00:25.444Z,2.96
2022-09-06T18:05:33.641Z,2.96
2022-09-06T18:10:41.588Z,2.97
2022-09-06T18:15:48.197Z,2.97
2022-09-06T18:20:55.988Z,2.97
2022-09-06T18:26:12.800Z,2.97
2022-09-06T18:31:19.574Z,2.96
2022-09-06T18:36:28.317Z,2.96
2022-09-06T18:41:35.024Z,2.97
2022-09-06T18:46:58.519Z,2.96
2022-09-06T18:52:07.004Z,2.96
2022-09-06T18:57:14.518Z,2.96
2022-09-06T19:02:21.688Z,2.96
2022-09-06T19:07:30.479Z,2.97
2022-09-06T19:12:38.195Z,2.96
2022-09-06T19:17:46.207Z,2.96
2022-09-06T19:22:54.509Z,2.96
2022-09-06T19:28:01.551Z,2.96
2022-09-06T19:33:08.242Z,2.96
2022-09-06T19:38:20.268Z,2.96
2022-09-06T19:43:29.565Z,2.96
2022-09-06T19:48:35.502Z,2.96
2022-09-06T19:53:42.690Z,2.96
2022-09-06T19:58:50.153Z,2.96
2022-09-06T20:03:58.364Z,2.96
2022-09-06T20:09:06.925Z,2.95
2022-09-06T20:14:14.019Z,2.96
2022-09-06T20:19:22.046Z,2.95
2022-09-06T20:24:29.100Z,2.95
2022-09-06T20:29:37.653Z,2.96
2022-09-06T20:34:44.147Z,2.95
2022-09-06T20:39:52.138Z,2.96
2022-09-06T20:44:58.485Z,2.96
2022-09-06T20:50:05.749Z,2.95
2022-09-06T20:55:13.521Z,2.97
2022-09-06T21:00:20.783Z,2.95
2022-09-06T21:05:28.701Z,2.96
2022-09-06T21:10:36.986Z,2.95
2022-09-06T21:15:45.818Z,2.96
2022-09-06T21:20:52.103Z,2.95
2022-09-06T21:25:59.337Z,2.95
2022-09-06T21:31:06.947Z,2.95
2022-09-06T21:36:15.422Z,2.96
2022-09-06T21:41:24.003Z,2.96
2022-09-06T21:46:31.299Z,2.94
2022-09-06T21:51:39.338Z,2.96
2022-09-06T21:56:45.816Z,2.95
2022-09-06T22:01:53.538Z,2.96
2022-09-06T22:07:01.044Z,2.95
2022-09-06T22:12:09.872Z,2.95
2022-09-06T22:17:18.334Z,2.95
2022-09-06T22:22:25.107Z,2.94
2022-09-06T22:27:32.084Z,2.95
2022-09-06T22:32:40.106Z,2.95
2022-09-06T22:37:49.520Z,2.95
2022-09-06T22:42:58.752Z,2.94
2022-09-06T22:48:07.335Z,2.95
2022-09-06T22:53:16.125Z,2.94
2022-09-06T22:58:25.210Z,2.95
2022-09-06T23:03:32.739Z,2.94
2022-09-06T23:08:40.294Z,2.95
2022-09-06T23:13:48.030Z,2.95
2022-09-06T23:18:55.504Z,2.94
2022-09-06T23:24:03.204Z,2.95
2022-09-06T23:29:09.426Z,2.94
2022-09-06T23:34:18.535Z,2.94
2022-09-06T23:39:24.468Z,2.94
2022-09-06T23:44:32.900Z,2.95
2022-09-06T23:49:41.224Z,2.95
2022-09-06T23:54:47.938Z,2.95
2022-09-06T23:59:55.395Z,2.94
